Time;durP1;ratioP1;P1;durP2;ratioP2;P2;SDS_P1;SDS_P2;PMS_P1;PMS_P2;Temp;Humidity;BMP_temperature;BMP_pressure;BME280_temperature;BME280_humidity;BME280_pressure;Samples;Min_cycle;Max_cycle;Signal;HPM_P1;HPM_P2
2022/10/16 16:34:51;;;;;;;20.73;11.15;;;14.70;99.90;;;;;;4956641;22;20104;-74
2022/10/16 16:39:45;;;;;;;33.90;20.80;;;14.70;99.90;;;;;;4944407;28;20101;-72
2022/10/16 16:42:11;;;;;;;11.45;4.15;;;14.70;99.90;;;;;;4956239;28;20441;-73
2022/10/16 16:44:37;;;;;;;10.13;2.80;;;14.70;99.90;;;;;;4955750;28;20118;-72
2022/10/16 16:47:03;;;;;;;7.90;2.75;;;14.70;99.90;;;;;;4957844;28;20031;-72
2022/10/16 16:49:30;;;;;;;11.98;4.05;;;14.70;99.90;;;;;;4957742;28;20109;-72
2022/10/16 16:51:56;;;;;;;13.30;2.80;;;14.70;99.90;;;;;;4958282;28;20043;-72
2022/10/16 16:54:22;;;;;;;11.23;2.92;;;14.70;99.90;;;;;;4956944;28;20036;-72
2022/10/16 16:56:48;;;;;;;10.63;2.40;;;14.70;99.90;;;;;;4956249;28;20461;-71
2022/10/16 16:59:15;;;;;;;7.82;2.10;;;14.70;99.90;;;;;;4953427;28;20181;-71
2022/10/16 17:01:41;;;;;;;12.60;2.90;;;14.80;99.90;;;;;;4954083;28;20035;-73
2022/10/16 17:04:07;;;;;;;18.48;7.38;;;14.70;99.90;;;;;;4950025;28;20035;-72
2022/10/16 17:06:33;;;;;;;8.75;2.92;;;14.70;99.90;;;;;;4944841;28;20493;-72
2022/10/16 17:09:02;;;;;;;10.98;2.75;;;14.70;99.90;;;;;;4939602;28;20037;-72
2022/10/16 17:11:28;;;;;;;15.38;3.47;;;14.70;99.90;;;;;;4949332;29;20039;-71
2022/10/16 17:13:55;;;;;;;7.47;2.88;;;14.70;99.90;;;;;;4950177;29;20505;-71
2022/10/16 17:16:23;;;;;;;11.90;3.17;;;14.70;99.90;;;;;;4950050;28;20051;-71
2022/10/16 17:18:49;;;;;;;12.70;2.88;;;14.70;99.90;;;;;;4950969;28;20114;-71
2022/10/16 17:21:14;;;;;;;9.80;2.20;;;14.70;99.90;;;;;;4950556;28;20114;-72
2022/10/16 17:23:40;;;;;;;14.07;2.78;;;14.70;99.90;;;;;;4949969;28;20035;-71
2022/10/16 17:26:08;;;;;;;11.63;3.55;;;14.70;99.90;;;;;;4949096;28;20039;-72
2022/10/16 17:28:34;;;;;;;15.02;4.28;;;14.70;99.90;;;;;;4951748;28;20058;-71
2022/10/16 17:31:17;;;;;;;14.60;4.20;;;14.70;99.90;;;;;;4955140;28;20825;-72
2022/10/16 17:33:44;;;;;;;9.48;2.30;;;14.70;99.90;;;;;;4941137;28;20059;-72
2022/10/16 17:36:10;;;;;;;12.85;2.72;;;14.70;99.90;;;;;;4962987;28;20496;-72
2022/10/16 17:38:36;;;;;;;9.05;2.38;;;14.70;99.90;;;;;;4945137;28;20039;-72
2022/10/16 17:41:11;;;;;;;10.63;3.22;;;14.70;99.90;;;;;;4965221;28;20396;-72
2022/10/16 17:43:38;;;;;;;9.95;2.72;;;14.70;99.90;;;;;;4966924;28;20134;-72
2022/10/16 17:46:04;;;;;;;11.82;2.22;;;14.70;99.90;;;;;;4967655;28;20811;-72
2022/10/16 17:48:30;;;;;;;6.65;2.72;;;14.80;99.90;;;;;;4964598;28;20449;-71
2022/10/16 17:50:55;;;;;;;13.52;5.68;;;14.80;99.90;;;;;;4967524;28;20489;-72
2022/10/16 17:53:21;;;;;;;17.83;3.45;;;14.80;99.90;;;;;;4965131;28;20038;-71
2022/10/16 17:55:46;;;;;;;12.68;4.70;;;14.80;99.90;;;;;;4968683;28;20102;-72
2022/10/16 17:58:12;;;;;;;17.63;6.93;;;14.80;99.90;;;;;;4968487;28;20033;-71
2022/10/16 18:00:38;;;;;;;11.70;3.63;;;14.90;99.90;;;;;;4964764;28;20050;-72
2022/10/16 18:03:03;;;;;;;8.18;1.90;;;14.90;99.90;;;;;;4968402;28;20725;-71
2022/10/16 18:05:29;;;;;;;8.63;1.70;;;14.90;99.90;;;;;;4966343;28;20038;-72
2022/10/16 18:07:55;;;;;;;9.10;2.03;;;14.90;99.90;;;;;;4967424;28;20085;-71
2022/10/16 18:10:20;;;;;;;9.00;2.03;;;14.90;99.90;;;;;;4966177;28;21404;-72
2022/10/16 18:12:46;;;;;;;11.35;2.40;;;15.00;99.90;;;;;;4964922;28;20050;-72
2022/10/16 18:15:12;;;;;;;8.73;1.77;;;15.00;99.90;;;;;;4961632;28;20089;-72
2022/10/16 18:17:37;;;;;;;8.68;2.00;;;15.00;99.90;;;;;;4967289;28;20050;-71
2022/10/16 18:20:05;;;;;;;8.65;2.15;;;15.00;99.90;;;;;;4970037;28;20061;-72
2022/10/16 18:22:35;;;;;;;7.22;1.55;;;15.00;99.90;;;;;;4951199;28;20555;-72
2022/10/16 18:25:05;;;;;;;12.95;1.95;;;15.10;99.90;;;;;;4966691;28;20031;-73
2022/10/16 18:27:32;;;;;;;8.00;1.63;;;15.10;99.90;;;;;;4966545;28;20115;-72
2022/10/16 18:29:58;;;;;;;8.98;1.80;;;15.10;99.90;;;;;;4965556;28;20097;-72
2022/10/16 18:32:24;;;;;;;8.82;1.70;;;15.10;99.90;;;;;;4963196;28;20054;-72
2022/10/16 18:34:50;;;;;;;8.85;1.77;;;15.20;99.90;;;;;;4957362;28;20046;-72
2022/10/16 18:37:16;;;;;;;8.18;1.85;;;15.20;99.90;;;;;;4967922;28;20042;-72
2022/10/16 18:39:47;;;;;;;6.15;1.55;;;15.20;99.90;;;;;;4968844;28;20023;-72
2022/10/16 18:42:13;;;;;;;8.10;1.60;;;15.20;99.90;;;;;;4971356;28;20151;-73
2022/10/16 18:44:39;;;;;;;7.28;2.08;;;15.30;99.90;;;;;;4966781;28;20035;-72
2022/10/16 18:47:04;;;;;;;6.32;1.40;;;15.30;99.90;;;;;;4970372;28;20065;-72
2022/10/16 18:49:30;;;;;;;6.22;1.40;;;15.30;99.90;;;;;;4949461;28;20046;-72
2022/10/16 18:51:56;;;;;;;6.93;1.65;;;15.30;99.90;;;;;;4970214;28;20045;-72
2022/10/16 18:54:23;;;;;;;7.25;2.30;;;15.40;99.90;;;;;;4969039;28;20806;-72
2022/10/16 18:56:51;;;;;;;9.02;2.53;;;15.40;99.90;;;;;;4968511;28;20038;-72
2022/10/16 18:59:17;;;;;;;7.93;1.67;;;15.40;99.90;;;;;;4967906;28;20131;-72
2022/10/16 19:01:42;;;;;;;8.20;1.77;;;15.40;99.90;;;;;;4960229;28;20046;-72
2022/10/16 19:04:12;;;;;;;5.80;1.50;;;15.40;99.90;;;;;;4970165;28;20043;-72
2022/10/16 19:06:48;;;;;;;6.63;1.25;;;15.40;99.90;;;;;;4965878;28;20485;-72
2022/10/16 19:09:16;;;;;;;8.70;1.67;;;15.40;99.90;;;;;;4964329;28;20039;-72
2022/10/16 19:11:43;;;;;;;10.07;1.65;;;15.40;99.90;;;;;;4962855;28;20284;-72
2022/10/16 19:14:10;;;;;;;9.75;1.40;;;15.40;99.90;;;;;;4964606;28;20070;-72
2022/10/16 19:16:36;;;;;;;6.22;1.35;;;15.40;99.90;;;;;;4969305;28;20128;-72
2022/10/16 19:19:04;;;;;;;8.82;2.65;;;15.40;99.90;;;;;;4967359;28;20042;-72
2022/10/16 19:21:33;;;;;;;8.88;2.08;;;15.30;99.90;;;;;;4962578;28;20042;-73
2022/10/16 19:24:00;;;;;;;11.13;1.80;;;15.30;99.90;;;;;;4964935;28;20722;-72
2022/10/16 19:26:28;;;;;;;11.30;2.20;;;15.30;99.90;;;;;;4961383;28;20038;-73
2022/10/16 19:28:57;;;;;;;9.70;1.80;;;15.30;99.90;;;;;;4968074;28;20039;-73
2022/10/16 19:31:24;;;;;;;5.50;1.60;;;15.30;99.90;;;;;;4966837;28;20153;-72
2022/10/16 19:33:52;;;;;;;7.65;1.70;;;15.30;99.90;;;;;;4966377;28;20141;-72
2022/10/16 19:36:26;;;;;;;9.32;1.65;;;15.20;99.90;;;;;;4964271;28;20459;-72
2022/10/16 19:39:00;;;;;;;6.95;2.10;;;15.30;99.90;;;;;;4963989;28;20041;-73
2022/10/16 19:41:27;;;;;;;9.15;1.55;;;15.30;99.90;;;;;;4964600;28;20038;-73
2022/10/16 19:43:54;;;;;;;6.95;1.33;;;15.30;99.90;;;;;;4964687;28;20101;-73
2022/10/16 19:46:22;;;;;;;6.53;1.50;;;15.30;99.90;;;;;;4962955;28;20031;-73
2022/10/16 19:48:48;;;;;;;7.30;1.80;;;15.30;99.90;;;;;;4946207;28;20481;-74
2022/10/16 19:51:18;;;;;;;8.52;2.10;;;15.30;99.90;;;;;;4964003;28;20162;-71
2022/10/16 19:53:45;;;;;;;8.07;1.90;;;15.30;99.90;;;;;;4963111;28;20397;-72
2022/10/16 19:56:16;;;;;;;8.75;1.95;;;15.30;99.90;;;;;;4969961;28;20056;-72
2022/10/16 19:58:44;;;;;;;11.60;2.05;;;15.30;99.90;;;;;;4965140;28;20066;-72
2022/10/16 20:01:10;;;;;;;9.77;2.17;;;15.30;99.90;;;;;;4960354;28;20105;-72
2022/10/16 20:03:35;;;;;;;9.48;1.90;;;15.30;99.90;;;;;;4964170;28;20049;-72
2022/10/16 20:06:05;;;;;;;6.72;2.00;;;15.30;99.90;;;;;;4953983;28;20185;-73
2022/10/16 20:08:33;;;;;;;11.57;2.67;;;15.30;99.90;;;;;;4963151;28;20042;-71
2022/10/16 20:10:59;;;;;;;7.13;1.80;;;15.30;99.90;;;;;;4980464;28;20043;-73
2022/10/16 20:13:25;;;;;;;7.85;1.90;;;15.30;99.90;;;;;;4962319;28;20062;-72
2022/10/16 20:15:50;;;;;;;5.15;1.70;;;15.30;99.90;;;;;;4967354;28;20098;-72
2022/10/16 20:18:16;;;;;;;8.70;2.17;;;15.30;99.90;;;;;;4967569;28;20074;-72
2022/10/16 20:20:44;;;;;;;8.55;2.40;;;15.30;99.90;;;;;;4974593;28;20041;-73
2022/10/16 20:23:10;;;;;;;11.85;2.63;;;15.40;99.90;;;;;;4979585;28;20509;-73
2022/10/16 20:25:38;;;;;;;10.85;2.60;;;15.40;99.90;;;;;;4972566;28;20141;-74
2022/10/16 20:28:04;;;;;;;6.10;2.08;;;15.40;99.90;;;;;;4971588;28;20042;-74
2022/10/16 20:30:38;;;;;;;9.80;3.05;;;15.50;99.90;;;;;;4969118;28;20029;-74
2022/10/16 20:33:07;;;;;;;6.97;2.70;;;15.40;99.90;;;;;;4968749;28;20033;-73
2022/10/16 20:35:37;;;;;;;10.52;3.13;;;15.50;99.90;;;;;;4969311;28;20524;-73
2022/10/16 20:38:03;;;;;;;11.43;4.25;;;15.40;99.90;;;;;;4969071;28;20134;-73
2022/10/16 20:40:29;;;;;;;12.15;4.63;;;15.40;99.90;;;;;;4969004;28;20053;-75
2022/10/16 20:42:54;;;;;;;13.23;4.97;;;15.40;99.90;;;;;;4968536;28;20055;-73
2022/10/16 20:45:20;;;;;;;11.65;5.20;;;15.30;99.90;;;;;;4968278;28;20047;-73
2022/10/16 20:47:45;;;;;;;8.35;4.30;;;15.30;99.90;;;;;;4982430;28;20061;-73
2022/10/16 20:50:13;;;;;;;11.35;3.65;;;15.30;99.90;;;;;;4981404;28;20516;-73
2022/10/16 20:52:39;;;;;;;9.75;3.10;;;15.30;99.90;;;;;;4968901;28;20031;-73
2022/10/16 20:55:05;;;;;;;10.02;3.20;;;15.30;99.90;;;;;;4969013;28;20093;-73
2022/10/16 20:57:30;;;;;;;8.45;2.90;;;15.30;99.90;;;;;;4968365;28;20031;-72
2022/10/16 20:59:56;;;;;;;10.55;3.92;;;15.20;99.90;;;;;;4964171;28;20077;-73
2022/10/16 21:02:22;;;;;;;7.97;3.05;;;15.30;99.90;;;;;;4966293;28;20045;-73
2022/10/16 21:04:48;;;;;;;14.43;4.40;;;15.30;99.90;;;;;;4971825;28;20785;-73
2022/10/16 21:07:14;;;;;;;16.30;3.88;;;15.30;99.90;;;;;;4970597;28;20027;-74
2022/10/16 21:09:40;;;;;;;10.43;4.30;;;15.30;99.90;;;;;;4955538;28;20473;-72
2022/10/16 21:12:06;;;;;;;11.50;5.07;;;15.30;99.90;;;;;;4971327;28;20544;-72
2022/10/16 21:14:32;;;;;;;15.23;5.45;;;15.30;99.90;;;;;;4970624;28;20398;-71
2022/10/16 21:16:57;;;;;;;13.98;4.80;;;15.30;99.90;;;;;;4969934;28;20413;-72
2022/10/16 21:19:23;;;;;;;13.82;4.40;;;15.30;99.90;;;;;;4968071;28;20034;-72
2022/10/16 21:21:50;;;;;;;13.45;3.95;;;15.30;99.90;;;;;;4970470;28;20038;-72
2022/10/16 21:24:16;;;;;;;12.40;3.80;;;15.40;99.90;;;;;;4969376;28;20049;-73
2022/10/16 21:26:42;;;;;;;11.00;3.85;;;15.40;99.90;;;;;;4970545;28;20379;-73
2022/10/16 21:29:08;;;;;;;14.52;4.20;;;15.40;99.90;;;;;;4970297;28;20408;-73
2022/10/16 21:31:34;;;;;;;7.13;3.25;;;15.30;99.90;;;;;;4970393;28;20034;-73
2022/10/16 21:34:00;;;;;;;11.02;3.45;;;15.50;99.90;;;;;;4970432;28;20053;-73
2022/10/16 21:36:28;;;;;;;10.00;4.03;;;15.50;99.90;;;;;;4952740;28;20385;-71
2022/10/16 21:38:55;;;;;;;12.48;4.55;;;15.60;99.90;;;;;;4970024;28;20041;-73
2022/10/16 21:41:23;;;;;;;12.35;4.38;;;15.90;99.90;;;;;;4970693;28;20511;-72
2022/10/16 21:43:49;;;;;;;13.50;5.38;;;16.10;99.90;;;;;;4970548;28;20540;-71
2022/10/16 21:46:19;;;;;;;14.48;5.40;;;16.20;99.90;;;;;;4950925;28;21671;-71
2022/10/16 21:48:46;;;;;;;12.18;5.60;;;16.40;99.90;;;;;;4972868;28;20049;-71
2022/10/16 21:51:12;;;;;;;14.32;5.00;;;16.40;99.90;;;;;;4971508;28;20042;-71
2022/10/16 21:53:39;;;;;;;15.18;5.85;;;16.50;99.90;;;;;;4969886;28;20034;-72
2022/10/16 21:56:15;;;;;;;15.23;5.55;;;16.60;99.90;;;;;;4971946;28;20062;-71
2022/10/16 21:58:41;;;;;;;15.60;5.60;;;16.60;99.90;;;;;;4966414;28;20058;-71
2022/10/16 22:01:09;;;;;;;13.85;5.43;;;16.70;99.90;;;;;;4972138;28;20046;-71
2022/10/16 22:03:34;;;;;;;12.70;5.45;;;16.80;99.90;;;;;;4969165;28;20046;-71
2022/10/16 22:06:02;;;;;;;12.10;4.38;;;16.80;99.90;;;;;;4971173;28;20062;-72
2022/10/16 22:08:28;;;;;;;14.25;5.53;;;16.80;99.90;;;;;;4969972;28;20031;-72
2022/10/16 22:10:53;;;;;;;13.13;5.20;;;16.80;99.90;;;;;;4970535;28;20053;-72
2022/10/16 22:13:19;;;;;;;13.43;5.07;;;16.80;99.90;;;;;;4958051;28;20041;-73
2022/10/16 22:15:50;;;;;;;12.73;5.25;;;16.90;99.90;;;;;;4972465;28;20381;-71
2022/10/16 22:18:17;;;;;;;14.77;5.22;;;16.90;99.90;;;;;;4968789;28;20090;-73
2022/10/16 22:20:47;;;;;;;12.10;5.38;;;16.90;99.90;;;;;;4973345;28;20042;-71
2022/10/16 22:23:13;;;;;;;;;;;16.90;99.90;;;;;;4972465;28;20507;-71
2022/10/16 22:25:38;;;;;;;14.50;4.90;;;16.90;99.90;;;;;;4967642;28;19914;-71
2022/10/16 22:28:04;;;;;;;9.13;5.13;;;17.00;99.90;;;;;;4970694;28;20031;-72
2022/10/16 22:30:30;;;;;;;11.95;4.97;;;16.90;99.90;;;;;;4970364;28;20030;-72
2022/10/16 22:32:56;;;;;;;14.15;5.13;;;17.00;99.90;;;;;;4974849;28;20399;-72
2022/10/16 22:35:21;;;;;;;11.10;5.32;;;17.00;99.90;;;;;;4953414;28;20035;-71
2022/10/16 22:37:47;;;;;;;12.02;5.40;;;17.00;99.90;;;;;;4970275;28;20034;-71
2022/10/16 22:40:12;;;;;;;12.70;5.63;;;17.00;99.90;;;;;;4970198;28;20124;-72
2022/10/16 22:42:38;;;;;;;17.75;5.65;;;17.00;99.90;;;;;;4970159;28;20046;-71
2022/10/16 22:45:04;;;;;;;15.57;5.30;;;17.10;99.90;;;;;;4973031;28;20042;-71
2022/10/16 22:47:30;;;;;;;17.48;5.38;;;17.10;99.90;;;;;;4970220;28;20742;-73
2022/10/16 22:49:55;;;;;;;13.13;5.10;;;17.10;99.90;;;;;;4971425;28;20030;-72
2022/10/16 22:52:21;;;;;;;21.95;6.20;;;17.10;99.90;;;;;;4971739;28;20042;-71
2022/10/16 22:54:46;;;;;;;16.63;5.57;;;17.10;99.90;;;;;;4969424;28;20434;-71
2022/10/16 22:57:12;;;;;;;14.20;6.07;;;17.20;99.90;;;;;;4967544;28;20038;-71
2022/10/16 22:59:37;;;;;;;18.65;5.72;;;17.20;99.90;;;;;;4969366;28;20027;-74
2022/10/16 23:02:03;;;;;;;14.13;6.97;;;17.20;99.90;;;;;;4970316;28;20033;-71
2022/10/16 23:04:31;;;;;;;19.85;5.93;;;17.20;99.90;;;;;;4953803;28;20476;-78
2022/10/16 23:06:57;;;;;;;17.80;5.80;;;17.20;99.90;;;;;;4967730;28;20050;-73
2022/10/16 23:09:23;;;;;;;17.88;5.78;;;17.20;99.90;;;;;;4965953;28;20046;-71
2022/10/16 23:11:49;;;;;;;18.80;6.20;;;17.30;99.90;;;;;;4968227;28;20034;-71
2022/10/16 23:14:19;;;;;;;15.05;6.40;;;17.20;99.90;;;;;;4966410;28;20070;-72
2022/10/16 23:16:45;;;;;;;18.40;6.13;;;17.20;99.90;;;;;;4968240;28;20037;-71
2022/10/16 23:19:11;;;;;;;16.73;6.18;;;17.20;99.90;;;;;;4969811;28;20043;-71
2022/10/16 23:21:36;;;;;;;18.15;6.00;;;17.30;99.90;;;;;;4967643;28;20034;-72
2022/10/16 23:24:02;;;;;;;14.80;6.47;;;17.30;99.90;;;;;;4971482;28;20034;-71
2022/10/16 23:26:28;;;;;;;14.73;5.45;;;17.30;99.90;;;;;;4965840;28;20049;-71
2022/10/16 23:28:57;;;;;;;19.00;7.25;;;17.30;99.90;;;;;;4970275;28;20041;-71
2022/10/16 23:31:24;;;;;;;19.00;6.32;;;17.30;99.90;;;;;;4968672;28;20062;-71
2022/10/16 23:33:50;;;;;;;19.20;6.40;;;17.30;99.90;;;;;;4968119;28;20053;-71
2022/10/16 23:36:18;;;;;;;15.65;6.35;;;17.30;99.90;;;;;;4968029;28;20035;-71
2022/10/16 23:38:45;;;;;;;19.05;7.03;;;17.40;99.90;;;;;;4961050;28;20598;-71
2022/10/16 23:41:12;;;;;;;17.48;6.47;;;17.50;99.90;;;;;;4966848;28;20039;-71
2022/10/16 23:43:37;;;;;;;19.17;6.60;;;17.40;99.90;;;;;;4968293;28;20081;-71
2022/10/16 23:46:04;;;;;;;17.60;6.35;;;17.40;99.90;;;;;;4969110;28;20038;-71
2022/10/16 23:48:30;;;;;;;16.55;6.75;;;17.50;99.90;;;;;;4967904;28;20058;-72
2022/10/16 23:50:56;;;;;;;17.73;6.65;;;17.40;99.90;;;;;;4946093;28;20114;-72
2022/10/16 23:53:22;;;;;;;15.80;6.65;;;17.40;99.90;;;;;;4968077;28;20130;-72
2022/10/16 23:55:47;;;;;;;14.98;6.80;;;17.40;99.90;;;;;;4968160;28;20044;-72
2022/10/16 23:58:13;;;;;;;14.75;6.13;;;17.40;99.90;;;;;;4967221;28;20737;-71
